Archival Weather

Chicago O'Hare International

Chicago, Illinois (KORD)

Report from: Saturday, March 5, 2022 7:51 PM CST
Current time: Saturday, February 4, 2023 11:11 PM CST

Current weather
Weather history
Weather forecast

Present weatherThunderstorms in the vicinity
Temperature18.3°C (64.9°F)
Dew point11.1°C (52.0°F)
Winds 20 kts (10.3 m/s, 23 mph) South-Southwest (200°)
Wind gusts 33 kts (17 m/s, 38 mph)
Peak wind 39 kts (20.1 m/s, 44.9 mph) South-Southwest (200°) at 18:55
Visibility10 mi. (16.1 km)
Clouds Scattered clouds 6,000 ft. (1,829 m)
Ceiling: Broken clouds 9,000 ft. (2,743 m)
Altimeter29.67 in.Hg (1005 mB)
Relative humidity63 %
Density altitude862 ft. (263 m)
Sea-level pressure100.5 kPa (1005 mB, 29.67 in.Hg)
Remarks System requires maintenance
Automated weather observing station with precipitation discriminator
Lightning observed
Distant west
Flight conditions Visual Meteorological Conditions
Raw dataKORD 060151Z 20020G33KT 10SM VCTS SCT060 BKN090 18/11 A2967 RMK AO2 PK WND 20039/0055 LTG DSNT W SLP047 T01830111 $
An unhandled exception has occurred. See browser dev tools for details. Reload 🗙